sensor_id;sensor_type;location;lat;lon;timestamp;temperature;humidity
10249;DHT22;5169;50.560;9.714;2023-07-13T00:00:52;20.50;89.60
10249;DHT22;5169;50.560;9.714;2023-07-13T00:03:26;20.50;90.00
10249;DHT22;5169;50.560;9.714;2023-07-13T00:05:59;20.50;90.00
10249;DHT22;5169;50.560;9.714;2023-07-13T00:08:29;20.40;90.50
10249;DHT22;5169;50.560;9.714;2023-07-13T00:10:55;20.30;90.50
10249;DHT22;5169;50.560;9.714;2023-07-13T00:13:20;20.10;90.80
10249;DHT22;5169;50.560;9.714;2023-07-13T00:15:46;20.10;91.10
10249;DHT22;5169;50.560;9.714;2023-07-13T00:18:12;20.10;91.10
10249;DHT22;5169;50.560;9.714;2023-07-13T00:20:37;20.10;91.50
10249;DHT22;5169;50.560;9.714;2023-07-13T00:23:03;20.00;91.50
10249;DHT22;5169;50.560;9.714;2023-07-13T00:25:28;20.00;91.80
10249;DHT22;5169;50.560;9.714;2023-07-13T00:27:54;20.00;92.00
10249;DHT22;5169;50.560;9.714;2023-07-13T00:30:23;19.90;91.90
10249;DHT22;5169;50.560;9.714;2023-07-13T00:32:49;19.90;92.20
10249;DHT22;5169;50.560;9.714;2023-07-13T00:35:15;19.80;92.50
10249;DHT22;5169;50.560;9.714;2023-07-13T00:37:46;19.80;92.80
10249;DHT22;5169;50.560;9.714;2023-07-13T00:40:15;19.80;92.70
10249;DHT22;5169;50.560;9.714;2023-07-13T00:42:41;19.70;93.00
10249;DHT22;5169;50.560;9.714;2023-07-13T00:47:42;19.70;93.50
10249;DHT22;5169;50.560;9.714;2023-07-13T00:50:11;19.60;93.50
10249;DHT22;5169;50.560;9.714;2023-07-13T00:52:43;19.60;93.70
10249;DHT22;5169;50.560;9.714;2023-07-13T00:55:13;19.50;93.80
10249;DHT22;5169;50.560;9.714;2023-07-13T00:57:40;19.30;94.20
10249;DHT22;5169;50.560;9.714;2023-07-13T01:00:07;19.30;94.60
10249;DHT22;5169;50.560;9.714;2023-07-13T01:02:36;19.40;94.60
10249;DHT22;5169;50.560;9.714;2023-07-13T01:05:12;19.40;94.60
10249;DHT22;5169;50.560;9.714;2023-07-13T01:07:42;19.40;94.70
10249;DHT22;5169;50.560;9.714;2023-07-13T01:10:12;19.30;94.90
10249;DHT22;5169;50.560;9.714;2023-07-13T01:12:37;19.10;95.20
10249;DHT22;5169;50.560;9.714;2023-07-13T01:15:32;19.00;95.60
10249;DHT22;5169;50.560;9.714;2023-07-13T01:17:51;19.10;95.80
10249;DHT22;5169;50.560;9.714;2023-07-13T01:20:17;19.20;95.80
10249;DHT22;5169;50.560;9.714;2023-07-13T01:22:43;19.30;96.00
10249;DHT22;5169;50.560;9.714;2023-07-13T01:25:11;19.30;96.20
10249;DHT22;5169;50.560;9.714;2023-07-13T01:27:38;19.20;96.30
10249;DHT22;5169;50.560;9.714;2023-07-13T01:30:06;19.10;96.40
10249;DHT22;5169;50.560;9.714;2023-07-13T01:32:32;19.10;96.60
10249;DHT22;5169;50.560;9.714;2023-07-13T01:34:59;19.00;97.00
10249;DHT22;5169;50.560;9.714;2023-07-13T01:37:26;19.10;96.70
10249;DHT22;5169;50.560;9.714;2023-07-13T01:39:52;19.10;96.70
10249;DHT22;5169;50.560;9.714;2023-07-13T01:42:18;19.10;96.80
10249;DHT22;5169;50.560;9.714;2023-07-13T01:44:43;19.00;96.80
10249;DHT22;5169;50.560;9.714;2023-07-13T01:47:09;19.10;96.90
10249;DHT22;5169;50.560;9.714;2023-07-13T01:49:37;18.90;97.30
10249;DHT22;5169;50.560;9.714;2023-07-13T01:52:06;18.90;97.40
10249;DHT22;5169;50.560;9.714;2023-07-13T01:54:34;18.90;97.40
10249;DHT22;5169;50.560;9.714;2023-07-13T01:57:02;18.70;97.80
10249;DHT22;5169;50.560;9.714;2023-07-13T01:59:29;18.80;98.00
10249;DHT22;5169;50.560;9.714;2023-07-13T02:01:54;18.70;98.10
10249;DHT22;5169;50.560;9.714;2023-07-13T02:04:20;18.80;98.10
10249;DHT22;5169;50.560;9.714;2023-07-13T02:06:48;18.70;98.10
10249;DHT22;5169;50.560;9.714;2023-07-13T02:09:15;18.60;98.10
10249;DHT22;5169;50.560;9.714;2023-07-13T02:11:41;18.60;97.30
10249;DHT22;5169;50.560;9.714;2023-07-13T02:14:07;18.50;97.10
10249;DHT22;5169;50.560;9.714;2023-07-13T02:16:32;18.50;97.30
10249;DHT22;5169;50.560;9.714;2023-07-13T02:18:58;18.40;97.60
10249;DHT22;5169;50.560;9.714;2023-07-13T02:21:23;18.30;98.00
10249;DHT22;5169;50.560;9.714;2023-07-13T02:23:52;18.30;98.20
10249;DHT22;5169;50.560;9.714;2023-07-13T02:26:18;18.40;98.00
10249;DHT22;5169;50.560;9.714;2023-07-13T02:28:43;18.40;98.00
10249;DHT22;5169;50.560;9.714;2023-07-13T02:31:13;18.50;98.10
10249;DHT22;5169;50.560;9.714;2023-07-13T02:33:40;18.50;97.90
10249;DHT22;5169;50.560;9.714;2023-07-13T02:36:06;18.50;97.90
10249;DHT22;5169;50.560;9.714;2023-07-13T02:38:33;18.30;98.10
10249;DHT22;5169;50.560;9.714;2023-07-13T02:41:00;18.40;98.50
10249;DHT22;5169;50.560;9.714;2023-07-13T02:43:27;18.20;98.90
10249;DHT22;5169;50.560;9.714;2023-07-13T02:45:52;18.00;99.10
10249;DHT22;5169;50.560;9.714;2023-07-13T02:48:21;18.00;99.60
10249;DHT22;5169;50.560;9.714;2023-07-13T02:50:46;18.00;99.50
10249;DHT22;5169;50.560;9.714;2023-07-13T02:53:12;18.00;99.40
10249;DHT22;5169;50.560;9.714;2023-07-13T02:55:38;18.00;99.10
10249;DHT22;5169;50.560;9.714;2023-07-13T02:58:04;18.00;99.10
10249;DHT22;5169;50.560;9.714;2023-07-13T03:00:32;17.80;99.50
10249;DHT22;5169;50.560;9.714;2023-07-13T03:02:58;17.70;99.80
10249;DHT22;5169;50.560;9.714;2023-07-13T03:05:24;17.70;99.80
10249;DHT22;5169;50.560;9.714;2023-07-13T03:07:52;17.80;99.50
10249;DHT22;5169;50.560;9.714;2023-07-13T03:10:20;18.00;99.00
10249;DHT22;5169;50.560;9.714;2023-07-13T03:12:45;18.20;98.20
10249;DHT22;5169;50.560;9.714;2023-07-13T03:15:13;18.00;98.50
10249;DHT22;5169;50.560;9.714;2023-07-13T03:17:39;18.10;98.10
10249;DHT22;5169;50.560;9.714;2023-07-13T03:20:05;18.20;98.20
10249;DHT22;5169;50.560;9.714;2023-07-13T03:22:32;18.20;97.80
10249;DHT22;5169;50.560;9.714;2023-07-13T03:24:57;18.10;97.60
10249;DHT22;5169;50.560;9.714;2023-07-13T03:27:23;18.10;97.70
10249;DHT22;5169;50.560;9.714;2023-07-13T03:29:49;18.00;97.90
10249;DHT22;5169;50.560;9.714;2023-07-13T03:32:14;18.00;97.70
10249;DHT22;5169;50.560;9.714;2023-07-13T03:34:42;17.90;97.50
10249;DHT22;5169;50.560;9.714;2023-07-13T03:37:10;17.90;97.40
10249;DHT22;5169;50.560;9.714;2023-07-13T03:39:38;18.00;97.20
10249;DHT22;5169;50.560;9.714;2023-07-13T03:42:04;18.00;97.10
10249;DHT22;5169;50.560;9.714;2023-07-13T03:44:29;17.90;97.40
10249;DHT22;5169;50.560;9.714;2023-07-13T03:46:55;17.90;97.40
10249;DHT22;5169;50.560;9.714;2023-07-13T03:49:21;17.90;97.30
10249;DHT22;5169;50.560;9.714;2023-07-13T03:51:46;18.00;97.50
10249;DHT22;5169;50.560;9.714;2023-07-13T03:54:12;18.00;97.50
10249;DHT22;5169;50.560;9.714;2023-07-13T03:56:37;18.00;97.20
10249;DHT22;5169;50.560;9.714;2023-07-13T03:59:04;18.00;97.50
10249;DHT22;5169;50.560;9.714;2023-07-13T04:01:30;18.00;97.30
10249;DHT22;5169;50.560;9.714;2023-07-13T04:03:57;18.00;97.50
10249;DHT22;5169;50.560;9.714;2023-07-13T04:06:27;17.90;97.60
10249;DHT22;5169;50.560;9.714;2023-07-13T04:08:55;17.90;97.40
10249;DHT22;5169;50.560;9.714;2023-07-13T04:11:24;17.90;97.30
10249;DHT22;5169;50.560;9.714;2023-07-13T04:13:52;17.90;97.70
10249;DHT22;5169;50.560;9.714;2023-07-13T04:16:18;17.90;97.30
10249;DHT22;5169;50.560;9.714;2023-07-13T04:18:46;17.80;97.40
10249;DHT22;5169;50.560;9.714;2023-07-13T04:21:14;17.90;97.60
10249;DHT22;5169;50.560;9.714;2023-07-13T04:23:41;17.90;97.50
10249;DHT22;5169;50.560;9.714;2023-07-13T04:26:09;17.80;97.60
10249;DHT22;5169;50.560;9.714;2023-07-13T04:28:35;17.80;97.30
10249;DHT22;5169;50.560;9.714;2023-07-13T04:31:03;17.70;97.60
10249;DHT22;5169;50.560;9.714;2023-07-13T04:33:32;17.70;98.00
10249;DHT22;5169;50.560;9.714;2023-07-13T04:36:00;17.70;97.50
10249;DHT22;5169;50.560;9.714;2023-07-13T04:38:29;17.70;97.60
10249;DHT22;5169;50.560;9.714;2023-07-13T04:40:56;17.80;97.60
10249;DHT22;5169;50.560;9.714;2023-07-13T04:43:23;17.90;96.70
10249;DHT22;5169;50.560;9.714;2023-07-13T04:45:49;17.90;96.80
10249;DHT22;5169;50.560;9.714;2023-07-13T04:48:15;18.00;96.10
10249;DHT22;5169;50.560;9.714;2023-07-13T04:50:41;18.10;95.70
10249;DHT22;5169;50.560;9.714;2023-07-13T04:53:08;18.10;96.00
10249;DHT22;5169;50.560;9.714;2023-07-13T04:55:34;18.10;95.60
10249;DHT22;5169;50.560;9.714;2023-07-13T04:57:59;18.00;95.90
10249;DHT22;5169;50.560;9.714;2023-07-13T05:00:26;17.90;96.00
10249;DHT22;5169;50.560;9.714;2023-07-13T05:02:54;17.90;96.00
10249;DHT22;5169;50.560;9.714;2023-07-13T05:05:20;17.90;96.20
10249;DHT22;5169;50.560;9.714;2023-07-13T05:07:48;17.90;96.90
10249;DHT22;5169;50.560;9.714;2023-07-13T05:10:14;17.90;97.00
10249;DHT22;5169;50.560;9.714;2023-07-13T05:12:42;17.80;97.00
10249;DHT22;5169;50.560;9.714;2023-07-13T05:15:07;18.00;96.60
10249;DHT22;5169;50.560;9.714;2023-07-13T05:17:35;18.00;96.40
10249;DHT22;5169;50.560;9.714;2023-07-13T05:20:04;18.00;96.50
10249;DHT22;5169;50.560;9.714;2023-07-13T05:22:31;18.10;96.40
10249;DHT22;5169;50.560;9.714;2023-07-13T05:24:56;18.10;96.20
10249;DHT22;5169;50.560;9.714;2023-07-13T05:27:22;18.20;95.80
10249;DHT22;5169;50.560;9.714;2023-07-13T05:29:50;18.20;95.60
10249;DHT22;5169;50.560;9.714;2023-07-13T05:32:15;18.30;95.20
10249;DHT22;5169;50.560;9.714;2023-07-13T05:34:41;18.20;95.90
10249;DHT22;5169;50.560;9.714;2023-07-13T05:37:07;18.20;95.70
10249;DHT22;5169;50.560;9.714;2023-07-13T05:39:33;18.40;95.80
10249;DHT22;5169;50.560;9.714;2023-07-13T05:41:59;18.50;95.70
10249;DHT22;5169;50.560;9.714;2023-07-13T05:44:24;18.50;94.80
10249;DHT22;5169;50.560;9.714;2023-07-13T05:46:50;18.60;94.70
10249;DHT22;5169;50.560;9.714;2023-07-13T05:49:15;18.80;94.60
10249;DHT22;5169;50.560;9.714;2023-07-13T05:51:41;19.20;94.50
10249;DHT22;5169;50.560;9.714;2023-07-13T05:54:06;20.00;92.60
10249;DHT22;5169;50.560;9.714;2023-07-13T05:56:32;21.10;90.90
10249;DHT22;5169;50.560;9.714;2023-07-13T05:58:58;22.10;88.50
10249;DHT22;5169;50.560;9.714;2023-07-13T06:01:23;22.90;85.50
10249;DHT22;5169;50.560;9.714;2023-07-13T06:03:49;23.40;82.20
10249;DHT22;5169;50.560;9.714;2023-07-13T06:06:15;23.60;80.80
10249;DHT22;5169;50.560;9.714;2023-07-13T06:08:41;23.70;80.50
10249;DHT22;5169;50.560;9.714;2023-07-13T06:11:15;23.60;79.40
10249;DHT22;5169;50.560;9.714;2023-07-13T06:13:44;23.90;79.80
10249;DHT22;5169;50.560;9.714;2023-07-13T06:16:13;24.10;78.00
10249;DHT22;5169;50.560;9.714;2023-07-13T06:18:40;24.00;79.20
10249;DHT22;5169;50.560;9.714;2023-07-13T06:23:41;24.40;78.20
10249;DHT22;5169;50.560;9.714;2023-07-13T06:26:08;24.50;76.10
10249;DHT22;5169;50.560;9.714;2023-07-13T06:28:38;24.30;76.40
10249;DHT22;5169;50.560;9.714;2023-07-13T06:31:07;24.40;75.20
10249;DHT22;5169;50.560;9.714;2023-07-13T06:33:35;24.10;75.50
10249;DHT22;5169;50.560;9.714;2023-07-13T06:36:03;24.00;76.40
10249;DHT22;5169;50.560;9.714;2023-07-13T06:38:31;23.90;76.00
10249;DHT22;5169;50.560;9.714;2023-07-13T06:40:56;23.50;77.40
10249;DHT22;5169;50.560;9.714;2023-07-13T06:43:22;23.30;77.60
10249;DHT22;5169;50.560;9.714;2023-07-13T06:45:54;23.40;78.10
10249;DHT22;5169;50.560;9.714;2023-07-13T06:48:20;23.40;78.20
10249;DHT22;5169;50.560;9.714;2023-07-13T06:50:48;23.40;76.60
10249;DHT22;5169;50.560;9.714;2023-07-13T06:53:14;22.90;78.80
10249;DHT22;5169;50.560;9.714;2023-07-13T06:55:43;22.70;79.80
10249;DHT22;5169;50.560;9.714;2023-07-13T06:58:10;22.80;80.00
10249;DHT22;5169;50.560;9.714;2023-07-13T07:00:36;22.90;79.00
10249;DHT22;5169;50.560;9.714;2023-07-13T07:03:01;22.90;79.70
10249;DHT22;5169;50.560;9.714;2023-07-13T07:05:27;22.60;79.60
10249;DHT22;5169;50.560;9.714;2023-07-13T07:07:56;22.60;79.70
10249;DHT22;5169;50.560;9.714;2023-07-13T07:10:22;22.60;81.10
10249;DHT22;5169;50.560;9.714;2023-07-13T07:12:48;22.40;80.50
10249;DHT22;5169;50.560;9.714;2023-07-13T07:15:16;22.50;80.00
10249;DHT22;5169;50.560;9.714;2023-07-13T07:17:42;22.40;79.20
10249;DHT22;5169;50.560;9.714;2023-07-13T07:20:09;22.40;80.30
10249;DHT22;5169;50.560;9.714;2023-07-13T07:22:35;22.40;78.70
10249;DHT22;5169;50.560;9.714;2023-07-13T07:25:03;22.50;78.70
10249;DHT22;5169;50.560;9.714;2023-07-13T07:27:29;22.30;77.50
10249;DHT22;5169;50.560;9.714;2023-07-13T07:29:55;22.20;78.50
10249;DHT22;5169;50.560;9.714;2023-07-13T07:32:23;22.10;79.20
10249;DHT22;5169;50.560;9.714;2023-07-13T07:34:49;22.40;79.10
10249;DHT22;5169;50.560;9.714;2023-07-13T07:37:14;22.60;80.20
10249;DHT22;5169;50.560;9.714;2023-07-13T07:39:40;22.80;78.50
10249;DHT22;5169;50.560;9.714;2023-07-13T07:42:06;23.00;77.00
10249;DHT22;5169;50.560;9.714;2023-07-13T07:44:32;23.10;78.60
10249;DHT22;5169;50.560;9.714;2023-07-13T07:46:58;23.20;75.30
10249;DHT22;5169;50.560;9.714;2023-07-13T07:49:26;23.20;77.30
10249;DHT22;5169;50.560;9.714;2023-07-13T07:51:54;23.20;76.70
10249;DHT22;5169;50.560;9.714;2023-07-13T07:54:20;23.30;75.40
10249;DHT22;5169;50.560;9.714;2023-07-13T07:56:46;23.20;75.50
10249;DHT22;5169;50.560;9.714;2023-07-13T07:59:16;23.20;76.80
10249;DHT22;5169;50.560;9.714;2023-07-13T08:01:41;23.50;76.40
10249;DHT22;5169;50.560;9.714;2023-07-13T08:04:11;23.60;75.20
10249;DHT22;5169;50.560;9.714;2023-07-13T08:06:39;23.40;75.90
10249;DHT22;5169;50.560;9.714;2023-07-13T08:09:05;23.60;74.60
10249;DHT22;5169;50.560;9.714;2023-07-13T08:11:35;23.50;75.10
10249;DHT22;5169;50.560;9.714;2023-07-13T08:14:01;23.50;75.20
10249;DHT22;5169;50.560;9.714;2023-07-13T08:16:26;23.60;75.10
10249;DHT22;5169;50.560;9.714;2023-07-13T08:18:52;23.80;74.20
10249;DHT22;5169;50.560;9.714;2023-07-13T08:21:18;23.80;75.20
10249;DHT22;5169;50.560;9.714;2023-07-13T08:23:49;23.90;74.10
10249;DHT22;5169;50.560;9.714;2023-07-13T08:26:14;23.90;73.30
10249;DHT22;5169;50.560;9.714;2023-07-13T08:28:42;23.80;73.40
10249;DHT22;5169;50.560;9.714;2023-07-13T08:31:08;23.90;73.20
10249;DHT22;5169;50.560;9.714;2023-07-13T08:33:36;23.90;72.80
10249;DHT22;5169;50.560;9.714;2023-07-13T08:36:02;23.90;73.10
10249;DHT22;5169;50.560;9.714;2023-07-13T08:38:27;24.00;74.30
10249;DHT22;5169;50.560;9.714;2023-07-13T08:40:55;24.00;73.80
10249;DHT22;5169;50.560;9.714;2023-07-13T08:43:30;24.00;72.80
10249;DHT22;5169;50.560;9.714;2023-07-13T08:48:56;24.00;72.30
10249;DHT22;5169;50.560;9.714;2023-07-13T08:54:16;24.00;71.50
10249;DHT22;5169;50.560;9.714;2023-07-13T08:56:44;24.20;70.40
10249;DHT22;5169;50.560;9.714;2023-07-13T08:59:15;24.40;71.40
10249;DHT22;5169;50.560;9.714;2023-07-13T09:04:34;24.80;70.20
10249;DHT22;5169;50.560;9.714;2023-07-13T09:07:11;24.80;69.90
10249;DHT22;5169;50.560;9.714;2023-07-13T09:15:03;25.10;67.60
10249;DHT22;5169;50.560;9.714;2023-07-13T09:17:46;25.10;67.20
10249;DHT22;5169;50.560;9.714;2023-07-13T09:22:44;25.20;67.00
10249;DHT22;5169;50.560;9.714;2023-07-13T09:25:26;25.20;67.70
10249;DHT22;5169;50.560;9.714;2023-07-13T09:27:54;25.50;66.60
10249;DHT22;5169;50.560;9.714;2023-07-13T09:30:37;25.60;66.70
10249;DHT22;5169;50.560;9.714;2023-07-13T09:33:10;25.20;65.40
10249;DHT22;5169;50.560;9.714;2023-07-13T09:35:36;25.10;66.50
10249;DHT22;5169;50.560;9.714;2023-07-13T09:38:16;25.40;66.00
10249;DHT22;5169;50.560;9.714;2023-07-13T09:41:21;25.70;65.30
10249;DHT22;5169;50.560;9.714;2023-07-13T09:44:12;25.80;64.70
10249;DHT22;5169;50.560;9.714;2023-07-13T09:46:52;25.30;64.80
10249;DHT22;5169;50.560;9.714;2023-07-13T09:49:18;25.40;64.70
10249;DHT22;5169;50.560;9.714;2023-07-13T09:51:44;25.40;66.00
10249;DHT22;5169;50.560;9.714;2023-07-13T09:54:21;25.20;64.20
10249;DHT22;5169;50.560;9.714;2023-07-13T09:56:54;25.40;66.40
10249;DHT22;5169;50.560;9.714;2023-07-13T09:59:22;25.50;63.40
10249;DHT22;5169;50.560;9.714;2023-07-13T10:01:49;25.60;64.30
10249;DHT22;5169;50.560;9.714;2023-07-13T10:04:19;25.90;63.10
10249;DHT22;5169;50.560;9.714;2023-07-13T10:06:48;25.90;63.70
10249;DHT22;5169;50.560;9.714;2023-07-13T10:09:16;25.90;64.70
10249;DHT22;5169;50.560;9.714;2023-07-13T10:11:44;26.00;63.90
10249;DHT22;5169;50.560;9.714;2023-07-13T10:14:16;26.10;63.60
10249;DHT22;5169;50.560;9.714;2023-07-13T10:16:46;25.90;62.90
10249;DHT22;5169;50.560;9.714;2023-07-13T10:19:24;25.70;62.80
10249;DHT22;5169;50.560;9.714;2023-07-13T10:21:55;25.60;61.90
10249;DHT22;5169;50.560;9.714;2023-07-13T10:24:24;25.40;62.40
10249;DHT22;5169;50.560;9.714;2023-07-13T10:27:18;25.40;63.90
10249;DHT22;5169;50.560;9.714;2023-07-13T10:29:50;25.50;63.30
10249;DHT22;5169;50.560;9.714;2023-07-13T10:32:19;26.00;62.60
10249;DHT22;5169;50.560;9.714;2023-07-13T10:34:47;26.50;60.50
10249;DHT22;5169;50.560;9.714;2023-07-13T10:37:26;26.70;59.50
10249;DHT22;5169;50.560;9.714;2023-07-13T10:39:56;26.80;59.30
10249;DHT22;5169;50.560;9.714;2023-07-13T10:42:33;27.60;59.00
10249;DHT22;5169;50.560;9.714;2023-07-13T10:45:12;29.00;58.30
10249;DHT22;5169;50.560;9.714;2023-07-13T10:47:38;30.10;55.90
10249;DHT22;5169;50.560;9.714;2023-07-13T10:50:05;30.10;54.00
10249;DHT22;5169;50.560;9.714;2023-07-13T10:52:45;29.90;53.00
10249;DHT22;5169;50.560;9.714;2023-07-13T10:58:03;29.80;52.90
10249;DHT22;5169;50.560;9.714;2023-07-13T11:00:47;29.70;53.00
10249;DHT22;5169;50.560;9.714;2023-07-13T11:03:15;28.90;54.30
10249;DHT22;5169;50.560;9.714;2023-07-13T11:05:41;28.30;53.30
10249;DHT22;5169;50.560;9.714;2023-07-13T11:10:55;27.40;56.40
10249;DHT22;5169;50.560;9.714;2023-07-13T11:18:45;29.90;51.80
10249;DHT22;5169;50.560;9.714;2023-07-13T11:21:19;29.50;51.90
10249;DHT22;5169;50.560;9.714;2023-07-13T11:23:54;29.30;49.10
10249;DHT22;5169;50.560;9.714;2023-07-13T11:31:59;28.20;49.10
10249;DHT22;5169;50.560;9.714;2023-07-13T11:34:33;27.50;50.90
10249;DHT22;5169;50.560;9.714;2023-07-13T11:37:03;27.30;52.50
10249;DHT22;5169;50.560;9.714;2023-07-13T11:39:33;27.10;54.30
10249;DHT22;5169;50.560;9.714;2023-07-13T11:42:05;27.40;53.70
10249;DHT22;5169;50.560;9.714;2023-07-13T11:44:34;28.20;52.60
10249;DHT22;5169;50.560;9.714;2023-07-13T11:47:09;29.50;49.10
10249;DHT22;5169;50.560;9.714;2023-07-13T11:49:43;30.10;47.60
10249;DHT22;5169;50.560;9.714;2023-07-13T11:52:14;30.70;47.70
10249;DHT22;5169;50.560;9.714;2023-07-13T11:55:14;32.10;45.00
10249;DHT22;5169;50.560;9.714;2023-07-13T11:57:47;31.70;44.20
10249;DHT22;5169;50.560;9.714;2023-07-13T12:00:17;31.30;44.30
10249;DHT22;5169;50.560;9.714;2023-07-13T12:02:45;30.90;45.30
10249;DHT22;5169;50.560;9.714;2023-07-13T12:05:16;32.10;45.80
10249;DHT22;5169;50.560;9.714;2023-07-13T12:07:46;32.80;42.80
10249;DHT22;5169;50.560;9.714;2023-07-13T12:10:28;32.00;43.30
10249;DHT22;5169;50.560;9.714;2023-07-13T12:12:58;30.10;44.80
10249;DHT22;5169;50.560;9.714;2023-07-13T12:15:37;28.70;47.50
10249;DHT22;5169;50.560;9.714;2023-07-13T12:18:03;27.60;49.80
10249;DHT22;5169;50.560;9.714;2023-07-13T12:20:39;26.70;51.30
10249;DHT22;5169;50.560;9.714;2023-07-13T12:23:06;26.10;52.50
10249;DHT22;5169;50.560;9.714;2023-07-13T12:25:39;25.70;53.30
10249;DHT22;5169;50.560;9.714;2023-07-13T12:28:30;25.60;54.00
10249;DHT22;5169;50.560;9.714;2023-07-13T12:31:03;25.50;53.90
10249;DHT22;5169;50.560;9.714;2023-07-13T12:33:30;25.30;54.20
10249;DHT22;5169;50.560;9.714;2023-07-13T12:36:00;25.10;55.70
10249;DHT22;5169;50.560;9.714;2023-07-13T12:38:27;25.10;57.10
10249;DHT22;5169;50.560;9.714;2023-07-13T12:40:53;25.30;55.30
10249;DHT22;5169;50.560;9.714;2023-07-13T12:43:23;25.60;55.20
10249;DHT22;5169;50.560;9.714;2023-07-13T12:46:17;25.70;54.70
10249;DHT22;5169;50.560;9.714;2023-07-13T12:48:53;25.80;54.50
10249;DHT22;5169;50.560;9.714;2023-07-13T12:51:22;25.90;54.70
10249;DHT22;5169;50.560;9.714;2023-07-13T12:53:57;25.50;54.60
10249;DHT22;5169;50.560;9.714;2023-07-13T12:56:26;25.30;55.30
10249;DHT22;5169;50.560;9.714;2023-07-13T12:58:59;25.30;55.50
10249;DHT22;5169;50.560;9.714;2023-07-13T13:01:34;25.20;55.50
10249;DHT22;5169;50.560;9.714;2023-07-13T13:04:03;25.40;56.50
10249;DHT22;5169;50.560;9.714;2023-07-13T13:06:34;25.60;55.90
10249;DHT22;5169;50.560;9.714;2023-07-13T13:09:03;25.50;55.40
10249;DHT22;5169;50.560;9.714;2023-07-13T13:11:31;25.20;56.30
10249;DHT22;5169;50.560;9.714;2023-07-13T13:13:59;24.80;56.80
10249;DHT22;5169;50.560;9.714;2023-07-13T13:19:15;24.80;58.10
10249;DHT22;5169;50.560;9.714;2023-07-13T13:21:44;24.80;58.10
10249;DHT22;5169;50.560;9.714;2023-07-13T13:24:16;25.10;58.60
10249;DHT22;5169;50.560;9.714;2023-07-13T13:26:45;25.30;57.20
10249;DHT22;5169;50.560;9.714;2023-07-13T13:29:19;25.30;57.50
10249;DHT22;5169;50.560;9.714;2023-07-13T13:31:45;25.20;58.00
10249;DHT22;5169;50.560;9.714;2023-07-13T13:34:17;25.20;57.60
10249;DHT22;5169;50.560;9.714;2023-07-13T13:36:44;25.20;57.70
10249;DHT22;5169;50.560;9.714;2023-07-13T13:39:20;25.30;57.60
10249;DHT22;5169;50.560;9.714;2023-07-13T13:41:47;25.20;57.30
10249;DHT22;5169;50.560;9.714;2023-07-13T13:44:15;25.20;58.20
10249;DHT22;5169;50.560;9.714;2023-07-13T13:46:41;25.30;57.90
10249;DHT22;5169;50.560;9.714;2023-07-13T13:49:17;25.50;57.50
10249;DHT22;5169;50.560;9.714;2023-07-13T13:51:47;25.30;57.20
10249;DHT22;5169;50.560;9.714;2023-07-13T13:54:14;25.40;57.20
10249;DHT22;5169;50.560;9.714;2023-07-13T13:56:49;25.40;57.10
10249;DHT22;5169;50.560;9.714;2023-07-13T13:59:16;25.50;56.60
10249;DHT22;5169;50.560;9.714;2023-07-13T14:01:47;25.50;57.00
10249;DHT22;5169;50.560;9.714;2023-07-13T14:04:22;25.40;57.20
10249;DHT22;5169;50.560;9.714;2023-07-13T14:06:48;25.40;56.40
10249;DHT22;5169;50.560;9.714;2023-07-13T14:09:16;25.10;56.70
10249;DHT22;5169;50.560;9.714;2023-07-13T14:11:44;24.90;57.50
10249;DHT22;5169;50.560;9.714;2023-07-13T14:14:16;24.50;57.90
10249;DHT22;5169;50.560;9.714;2023-07-13T14:16:43;24.40;58.70
10249;DHT22;5169;50.560;9.714;2023-07-13T14:19:12;24.30;58.60
10249;DHT22;5169;50.560;9.714;2023-07-13T14:21:39;24.40;58.90
10249;DHT22;5169;50.560;9.714;2023-07-13T14:24:09;24.40;59.00
10249;DHT22;5169;50.560;9.714;2023-07-13T14:26:40;24.40;59.20
10249;DHT22;5169;50.560;9.714;2023-07-13T14:29:16;24.50;59.60
10249;DHT22;5169;50.560;9.714;2023-07-13T14:31:43;24.60;59.70
10249;DHT22;5169;50.560;9.714;2023-07-13T14:34:11;24.70;59.30
10249;DHT22;5169;50.560;9.714;2023-07-13T14:36:42;24.60;59.10
10249;DHT22;5169;50.560;9.714;2023-07-13T14:39:15;24.60;59.70
10249;DHT22;5169;50.560;9.714;2023-07-13T14:41:49;24.50;59.50
10249;DHT22;5169;50.560;9.714;2023-07-13T14:44:17;24.50;59.90
10249;DHT22;5169;50.560;9.714;2023-07-13T14:46:47;24.30;59.80
10249;DHT22;5169;50.560;9.714;2023-07-13T14:51:59;24.30;59.50
10249;DHT22;5169;50.560;9.714;2023-07-13T14:54:25;24.20;59.10
10249;DHT22;5169;50.560;9.714;2023-07-13T14:56:51;24.20;59.90
10249;DHT22;5169;50.560;9.714;2023-07-13T14:59:21;24.30;59.10
10249;DHT22;5169;50.560;9.714;2023-07-13T15:01:48;24.30;59.00
10249;DHT22;5169;50.560;9.714;2023-07-13T15:04:17;24.30;59.40
10249;DHT22;5169;50.560;9.714;2023-07-13T15:07:00;24.40;58.80
10249;DHT22;5169;50.560;9.714;2023-07-13T15:09:28;24.20;58.90
10249;DHT22;5169;50.560;9.714;2023-07-13T15:11:58;24.10;59.20
10249;DHT22;5169;50.560;9.714;2023-07-13T15:14:25;24.10;59.10
10249;DHT22;5169;50.560;9.714;2023-07-13T15:16:54;24.20;59.50
10249;DHT22;5169;50.560;9.714;2023-07-13T15:19:21;24.30;59.50
10249;DHT22;5169;50.560;9.714;2023-07-13T15:21:49;24.30;59.10
10249;DHT22;5169;50.560;9.714;2023-07-13T15:24:15;24.20;59.30
10249;DHT22;5169;50.560;9.714;2023-07-13T15:26:42;24.20;59.80
10249;DHT22;5169;50.560;9.714;2023-07-13T15:29:11;24.00;59.80
10249;DHT22;5169;50.560;9.714;2023-07-13T15:31:37;24.10;60.60
10249;DHT22;5169;50.560;9.714;2023-07-13T15:34:13;24.20;60.00
10249;DHT22;5169;50.560;9.714;2023-07-13T15:36:39;24.30;60.10
10249;DHT22;5169;50.560;9.714;2023-07-13T15:39:06;24.50;60.90
10249;DHT22;5169;50.560;9.714;2023-07-13T15:41:32;24.50;59.40
10249;DHT22;5169;50.560;9.714;2023-07-13T15:44:22;24.30;60.00
10249;DHT22;5169;50.560;9.714;2023-07-13T15:46:44;24.50;61.10
10249;DHT22;5169;50.560;9.714;2023-07-13T15:49:10;24.60;61.90
10249;DHT22;5169;50.560;9.714;2023-07-13T15:51:36;24.70;61.60
10249;DHT22;5169;50.560;9.714;2023-07-13T15:54:04;24.70;62.20
10249;DHT22;5169;50.560;9.714;2023-07-13T15:56:36;24.60;61.90
10249;DHT22;5169;50.560;9.714;2023-07-13T15:59:03;24.70;62.50
10249;DHT22;5169;50.560;9.714;2023-07-13T16:01:30;24.80;62.10
10249;DHT22;5169;50.560;9.714;2023-07-13T16:03:58;24.90;61.40
10249;DHT22;5169;50.560;9.714;2023-07-13T16:06:28;24.80;61.30
10249;DHT22;5169;50.560;9.714;2023-07-13T16:08:54;24.70;61.70
10249;DHT22;5169;50.560;9.714;2023-07-13T16:13:46;24.50;61.90
10249;DHT22;5169;50.560;9.714;2023-07-13T16:16:17;24.50;60.90
10249;DHT22;5169;50.560;9.714;2023-07-13T16:18:44;24.60;61.10
10249;DHT22;5169;50.560;9.714;2023-07-13T16:21:14;24.60;61.30
10249;DHT22;5169;50.560;9.714;2023-07-13T16:23:42;24.60;61.90
10249;DHT22;5169;50.560;9.714;2023-07-13T16:26:23;24.70;61.10
10249;DHT22;5169;50.560;9.714;2023-07-13T16:28:53;24.70;61.20
10249;DHT22;5169;50.560;9.714;2023-07-13T16:31:27;24.40;60.70
10249;DHT22;5169;50.560;9.714;2023-07-13T16:33:53;24.20;61.40
10249;DHT22;5169;50.560;9.714;2023-07-13T16:36:18;24.20;61.90
10249;DHT22;5169;50.560;9.714;2023-07-13T16:38:44;24.30;61.40
10249;DHT22;5169;50.560;9.714;2023-07-13T16:41:10;24.20;62.10